Welcome to our new website - Welkom op onze vernieuwde website - Bienvenue sur notre nouveau site web - Willkommen auf unserer neuen Website
Check our progress frequently. Prüfen Sie unsere Fortschritte regelmäßig. Consultez notre progression fréquemment. Komt u straks nog eens terug


Bezoek onze andere website:

Template documentation
and downloads

And another site



METAR rapporten vliegvelden

   
EBBR - Brussels International Airport, Belgium
Afstand tot: W 14 km
Gewijzigd: Mar 31 2020 2:50 am
Licht bewolkt  
Licht bewolkt  
   Wind: NNO 7 km/h
Wind: NNO 7 km/h
Temperatuur: 2°C
Voelt als: 0°C
Dauwpunt: 1°C
Vochtigheid: 93%
Barometer: 1028 hPa
Bewolking: Licht bewolkt
Zicht: meer dan 10 km
Bewolking: Licht bewolkt 304.8 m
EBBR 310050Z 02004KT 9999 FEW010 02/01 Q1028 NOSIG
EBBE - Beauvechain (Bevekom), Belgium
Afstand tot: ZZO 17 km
Gewijzigd: Mar 31 2020 2:55 am
Grotendeels bewolkt  
Grotendeels bewolkt  
   Wind: NNO 11 km/h
Wind: NNO 11 km/h
Temperatuur: 2°C
Voelt als: -1°C
Dauwpunt: 1°C
Vochtigheid: 93%
Barometer: 1028 hPa
Bewolking: Grotendeels bewolkt
Zicht: meer dan 10 km
Bewolking: Gedeeltelijk bewolkt 213.4 m,
Grotendeels bewolkt 274.3 m
EBBE 310055Z AUTO 02006KT 9999 SCT007/// BKN009/// 02/01 Q1028 GRN
EBDT - Schaffen, Belgium
Afstand tot: ONO 29 km
Gewijzigd: Mar 31 2020 2:55 am
Bewolking  
Bewolking  
   Wind: Noorden 13 km/h
Wind: Noorden 13 km/h
Temperatuur: 2°C
Voelt als: -2°C
Dauwpunt: 2°C
Vochtigheid: 100%
Barometer: 1028 hPa
Bewolking: Bewolking
Zicht: 7 km
Bewolking: Licht bewolkt 2286 m,
Grotendeels bewolkt 3048 m,
Bewolking 3657.6 m
EBDT 310055Z AUTO 01007KT 7000 FEW075/// BKN100/// OVC120/// 02/02 Q1028 WHT
EBAW - Antwerp/Deurne, Belgium
Afstand tot: NNW 38 km
Gewijzigd: Mar 31 2020 2:50 am
Helder  
Helder  
   Wind: NNO 7 km/h
Wind: NNO 7 km/h
Temperatuur: 3°C
Voelt als: 1°C
Dauwpunt: 2°C
Vochtigheid: 93%
Barometer: 1029 hPa
Zicht: meer dan 10 km
Bewolking: Helder
EBAW 310050Z AUTO 03004KT CAVOK 03/02 Q1029
EBCI - Charleroi/Gosselies, Belgium
Afstand tot: ZZW 51 km
Gewijzigd: Mar 31 2020 2:50 am
Grotendeels bewolkt  
Grotendeels bewolkt  
   Wind: NO 9 km/h
Wind: NO 9 km/h
Temperatuur: 2°C
Voelt als: -1°C
Dauwpunt: 1°C
Vochtigheid: 93%
Barometer: 1027 hPa
Bewolking: Grotendeels bewolkt
Zicht: meer dan 10 km
Bewolking: Grotendeels bewolkt 365.8 m,
Grotendeels bewolkt 426.7 m
EBCI 310050Z AUTO 04005KT 9999 // BKN012/// BKN014/// 02/01 Q1027
EBLG - Bierset/Liege, Belgium
Afstand tot: OZO 60 km
Gewijzigd: Mar 31 2020 2:50 am
Gedeeltelijk bewolkt  
Gedeeltelijk bewolkt  
   Wind: Noorden 6 km/h
Wind: Noorden 6 km/h
Temperatuur: 3°C
Voelt als: 2°C
Dauwpunt: 2°C
Vochtigheid: 93%
Barometer: 1027 hPa
Bewolking: Gedeeltelijk bewolkt
Zicht: meer dan 10 km
Bewolking: Licht bewolkt 182.9 m,
Gedeeltelijk bewolkt 365.8 m
EBLG 310050Z 01003KT 340V120 9999 FEW006 SCT012 03/02 Q1027 BECMG SCT006 BKN011

Script ontwikkeld door  Saratoga-weather.org Aangepast voor de template door  Weerstation Leuven

U vindt ons ook hier:

Het Weer Aktueel

UK Metoffice

European Weather Network

WeatherCloud

Weather Underground

AWEKAS

Apparatuur in gebruik:

Weerstation
Davis VP2

Weerprogramma
Meteobridge

Weercomputer
Tl-mr3020

Webleverancier
Robohost

Davis VP2

Meteobridge

Tl-mr3020

Robohost